createdAt,value
2017-08-21T04:30:50.753Z,2.27
2017-08-21T04:33:19.038Z,2.40
2017-08-21T04:35:47.326Z,3.00
2017-08-21T04:38:15.699Z,2.50
2017-08-21T04:40:43.971Z,2.20
2017-08-21T04:43:12.223Z,2.57
2017-08-21T04:45:40.499Z,2.40
2017-08-21T04:48:08.814Z,2.30
2017-08-21T04:50:37.175Z,3.00
2017-08-21T04:53:05.422Z,2.47
2017-08-21T04:55:33.704Z,2.10
2017-08-21T04:58:01.970Z,2.50
2017-08-21T05:00:30.283Z,2.60
2017-08-21T05:02:58.563Z,2.50
2017-08-21T05:05:26.955Z,2.43
2017-08-21T05:07:55.214Z,2.53
2017-08-21T05:10:23.495Z,2.53
2017-08-21T05:12:51.766Z,2.60
2017-08-21T05:15:20.239Z,2.40
2017-08-21T05:17:48.526Z,2.63
2017-08-21T05:20:16.927Z,2.60
2017-08-21T05:22:45.514Z,2.77
2017-08-21T05:25:13.866Z,2.70
2017-08-21T05:27:42.123Z,2.50
2017-08-21T05:30:10.424Z,2.50
2017-08-21T05:32:38.719Z,2.87
2017-08-21T05:35:07.075Z,2.03
2017-08-21T05:37:35.352Z,2.77
2017-08-21T05:40:03.963Z,2.23
2017-08-21T05:42:32.330Z,2.50
2017-08-21T05:45:00.690Z,2.77
2017-08-21T05:47:28.986Z,2.47
2017-08-21T05:49:57.346Z,2.67
2017-08-21T05:52:25.711Z,2.83
2017-08-21T05:54:53.963Z,2.53
2017-08-21T05:57:22.277Z,2.43
2017-08-21T05:59:50.555Z,2.50
2017-08-21T06:02:18.838Z,2.90
2017-08-21T06:04:47.106Z,2.53
2017-08-21T06:07:15.386Z,2.57
2017-08-21T06:09:43.662Z,3.00
2017-08-21T06:12:12.043Z,3.87
2017-08-21T06:14:40.294Z,4.33
2017-08-21T06:17:08.823Z,3.50
2017-08-21T06:19:37.083Z,3.10
2017-08-21T06:22:05.368Z,3.37
2017-08-21T06:24:33.614Z,2.70
2017-08-21T06:27:02.008Z,3.27
2017-08-21T06:29:30.347Z,3.50
2017-08-21T15:02:23.675Z,1.97
2017-08-21T15:04:52.884Z,2.00
2017-08-21T15:07:21.277Z,2.37
2017-08-21T15:09:49.510Z,2.10
2017-08-21T15:12:17.794Z,1.97
2017-08-21T15:14:47.115Z,2.30
2017-08-21T15:17:15.495Z,2.63
2017-08-21T15:19:43.747Z,2.30
2017-08-21T15:22:12.046Z,2.20
2017-08-21T15:24:40.318Z,2.20
2017-08-21T15:27:09.624Z,2.30
2017-08-21T15:29:37.875Z,2.13
2017-08-21T15:32:06.127Z,2.10
2017-08-21T15:34:34.413Z,2.57
2017-08-21T15:37:03.383Z,2.30
2017-08-21T15:39:31.667Z,2.10
2017-08-21T15:41:59.994Z,2.07
2017-08-21T15:44:28.370Z,2.17
2017-08-21T15:46:56.659Z,1.80
2017-08-21T15:49:24.963Z,2.20
2017-08-21T15:51:53.948Z,2.20
2017-08-21T15:54:22.311Z,2.00
2017-08-21T15:56:51.603Z,1.37
2017-08-21T15:59:19.978Z,2.00
2017-08-21T16:01:48.234Z,2.10
2017-08-21T16:04:17.455Z,2.10
2017-08-21T16:06:45.749Z,2.47
2017-08-21T16:09:14.114Z,2.70
2017-08-21T16:11:42.405Z,2.47
2017-08-21T16:14:10.775Z,1.70
2017-08-21T16:16:39.153Z,1.80
2017-08-21T16:19:07.480Z,2.40
2017-08-21T16:21:35.799Z,2.10
2017-08-21T16:24:04.081Z,1.70
2017-08-21T16:26:32.687Z,2.70
2017-08-21T16:29:00.971Z,2.70
2017-08-21T16:31:29.314Z,1.97
2017-08-21T16:33:57.604Z,2.17
2017-08-21T16:36:26.826Z,1.87
2017-08-21T16:38:55.176Z,2.63
2017-08-21T16:41:23.462Z,2.20
2017-08-21T16:43:51.728Z,3.10
2017-08-21T16:46:20.062Z,2.07
2017-08-21T16:48:48.315Z,2.00
2017-08-21T16:51:16.624Z,2.00
2017-08-21T16:53:44.934Z,2.23
2017-08-21T16:56:13.218Z,2.20
2017-08-21T16:58:41.587Z,2.17
2017-08-21T17:01:09.967Z,3.27
2017-08-21T17:03:39.500Z,4.20
2017-08-21T17:06:07.779Z,4.77
2017-08-21T17:08:36.043Z,4.60
2017-08-21T17:11:04.419Z,3.30
2017-08-21T17:13:32.680Z,3.73
2017-08-21T17:16:00.951Z,2.60
2017-08-21T17:18:29.350Z,2.73
2017-08-21T17:20:57.611Z,2.67
2017-08-21T17:23:25.987Z,2.00
2017-08-21T17:25:54.011Z,2.00
2017-08-21T17:28:22.058Z,2.57
2017-08-21T17:30:50.322Z,2.10
2017-08-21T17:33:18.603Z,2.57
2017-08-21T17:35:46.864Z,2.90
2017-08-21T17:38:15.238Z,2.00
2017-08-21T17:40:43.516Z,2.60
2017-08-21T17:43:11.795Z,2.50
2017-08-21T17:45:40.062Z,2.10
2017-08-21T17:48:09.270Z,1.80
2017-08-21T17:50:37.544Z,2.23
2017-08-21T17:53:05.925Z,2.80
2017-08-21T17:55:34.198Z,2.27
2017-08-21T17:58:02.579Z,2.30
2017-08-21T18:00:30.839Z,2.30
2017-08-21T18:02:59.122Z,2.03
2017-08-21T18:05:27.428Z,1.70
2017-08-21T18:07:55.698Z,2.30
2017-08-21T18:10:23.950Z,2.20
2017-08-21T18:12:52.987Z,2.67
2017-08-21T18:15:21.358Z,2.43
2017-08-21T18:17:49.725Z,2.47
2017-08-21T18:20:17.959Z,3.20
2017-08-21T18:22:46.263Z,2.50
2017-08-21T18:25:14.537Z,2.40
2017-08-21T18:27:42.815Z,2.20
2017-08-21T18:30:11.091Z,2.80
2017-08-21T18:32:39.384Z,2.47
2017-08-21T18:35:07.651Z,2.50
2017-08-21T18:37:35.943Z,2.30
2017-08-21T18:40:04.235Z,2.90
2017-08-21T18:42:32.495Z,3.13
2017-08-21T18:45:00.869Z,2.60
2017-08-21T18:47:30.135Z,2.70
2017-08-21T18:49:58.444Z,3.53
2017-08-21T18:52:26.712Z,2.50
2017-08-21T18:54:55.099Z,2.50
2017-08-21T18:57:23.363Z,2.70
2017-08-21T18:59:51.663Z,2.53
2017-08-21T19:02:19.930Z,2.40
2017-08-21T19:04:48.204Z,2.47
2017-08-21T19:07:16.455Z,2.30
2017-08-21T19:09:44.739Z,2.60
2017-08-21T19:12:13.119Z,2.60
2017-08-21T19:14:41.515Z,2.73
2017-08-21T19:17:09.759Z,2.50
2017-08-21T19:19:38.159Z,3.00
2017-08-21T19:22:06.431Z,3.90
2017-08-21T19:24:34.710Z,24.60
2017-08-21T19:27:03.104Z,32.13
2017-08-21T19:29:31.362Z,13.80
2017-08-21T19:31:59.738Z,6.50
2017-08-21T19:34:28.021Z,3.50
2017-08-21T19:36:56.413Z,3.30
2017-08-21T19:39:24.676Z,2.87
2017-08-21T19:41:52.951Z,2.90
2017-08-21T19:44:21.222Z,3.70
2017-08-21T19:46:49.518Z,4.17
2017-08-21T19:49:17.782Z,3.90
2017-08-21T19:51:46.163Z,4.30
2017-08-21T19:54:14.419Z,4.30
2017-08-21T19:56:42.707Z,3.60
2017-08-21T19:59:10.962Z,4.33
2017-08-21T20:01:39.244Z,4.20
2017-08-21T20:04:07.531Z,4.67
2017-08-21T20:06:35.807Z,3.90
2017-08-21T20:09:04.107Z,4.40
2017-08-21T20:11:32.489Z,4.20
2017-08-21T20:14:00.770Z,4.10
2017-08-21T20:16:29.755Z,3.40
2017-08-21T20:18:58.118Z,2.93
2017-08-21T20:21:26.407Z,3.90
2017-08-21T20:23:54.675Z,3.07
2017-08-21T20:26:22.967Z,2.60
2017-08-21T20:28:51.208Z,3.10
2017-08-21T20:31:19.608Z,3.30
2017-08-21T20:33:47.866Z,3.13
2017-08-21T20:36:16.146Z,2.30
2017-08-21T20:38:44.764Z,2.90
2017-08-21T20:41:13.126Z,1.87
2017-08-21T20:43:41.400Z,2.57
2017-08-21T20:46:09.774Z,2.73
2017-08-21T20:48:38.069Z,2.70
2017-08-21T20:51:06.435Z,3.00
2017-08-21T20:53:34.806Z,3.30
2017-08-21T20:56:03.523Z,2.70
2017-08-21T20:58:31.875Z,3.00
2017-08-21T21:01:00.163Z,1.80
2017-08-21T21:03:28.658Z,2.70
2017-08-21T21:05:57.250Z,3.13
2017-08-21T21:08:25.541Z,2.60
2017-08-21T21:10:53.873Z,2.10
2017-08-21T21:13:22.147Z,2.93
2017-08-21T21:15:50.414Z,3.53
2017-08-21T21:18:18.707Z,2.37
2017-08-21T21:20:47.690Z,2.40
2017-08-21T21:23:16.070Z,2.50
2017-08-21T21:25:44.360Z,2.30
2017-08-21T21:28:12.728Z,2.80
2017-08-21T21:30:41.007Z,2.80
2017-08-21T21:33:09.386Z,2.93
2017-08-21T21:35:37.663Z,2.87
2017-08-21T21:38:06.055Z,2.87
2017-08-21T21:40:34.314Z,2.60
2017-08-21T21:43:02.594Z,2.70
2017-08-21T21:45:30.885Z,2.53
2017-08-21T21:47:59.142Z,2.50
2017-08-21T21:50:27.854Z,2.97
2017-08-21T21:52:56.327Z,3.07
2017-08-21T21:55:24.614Z,3.00
2017-08-21T21:57:52.971Z,2.90
2017-08-21T22:00:51.179Z,2.70
2017-08-21T22:03:19.429Z,3.20
2017-08-21T22:05:47.716Z,3.30
2017-08-21T22:08:15.967Z,2.87
2017-08-21T22:10:44.267Z,3.13
2017-08-21T22:13:12.511Z,3.37
2017-08-21T22:15:40.802Z,3.10
2017-08-21T22:18:09.094Z,3.07
2017-08-21T22:20:37.359Z,2.97
2017-08-21T22:23:05.626Z,2.50
2017-08-21T22:25:34.867Z,4.20
2017-08-21T22:28:04.130Z,3.93
2017-08-21T22:30:32.506Z,3.50
2017-08-21T22:33:00.788Z,3.07
2017-08-21T22:35:29.158Z,3.10
2017-08-21T22:37:57.415Z,3.27
2017-08-21T22:40:25.716Z,3.80
2017-08-21T22:42:54.011Z,3.30
